Flight Track Log - Related Links

Times and Time Zones

All times are in EST time to prevent confusion due to time zone crossing. See the N411WC flight status page for this flight to view local times or setup timezone preferences in your user account.

Time Position Orientation Groundspeed Altitude Reporting Facility
EST Latitude Longitude Course Direction KTS MPH feet Rate Location/Type
Thu 05:18:11 PM 45.5931 -122.5922 272° West 141 162 500  Level Seattle Center
Thu 05:19:24 PM 45.5953 -122.6683 272° West 161 185 2,900 1,254 Climbing Seattle Center
Thu 05:20:25 PM 45.5925 -122.7406 267° West 170 196 3,300 516 Climbing Seattle Center
Thu 05:21:32 PM 45.5878 -122.8042 264° West 145 167 4,000 331 Climbing Seattle Center
Thu 05:22:32 PM 45.5825 -122.8647 263° West 163 188 4,000  Level Seattle Center
Thu 05:23:20 PM 45.5564 -122.8542 164° South 198 228 4,000  Level Seattle Center
Thu 05:23:33 PM 45.5489 -122.8258 111° Southeast 205 236 4,000  Level Seattle Center
Thu 05:24:21 PM 45.5408 -122.7822 105° East 196 226 4,000  Level Seattle Center
Thu 05:24:28 PM 45.5369 -122.7661 109° East 190 219 4,000  Level Seattle Center
Thu 05:25:22 PM 45.5233 -122.6981 106° East 188 216 4,000  Level Seattle Center
Thu 05:25:29 PM 45.5194 -122.6900 125° Southeast 184 212 4,000 -98 Level Seattle Center
Thu 05:26:23 PM 45.4908 -122.6997 193° South 187 215 3,900  Descending Seattle Center
Thu 05:26:29 PM 45.4906 -122.7078 267° West 172 198 4,000  Climbing Seattle Center
Thu 05:27:30 PM 45.4489 -122.7372 206° Southwest 174 200 3,900 -513 Descending Seattle Center
Thu 05:28:26 PM 45.4094 -122.7397 183° South 171 197 3,000 -806 Descending Seattle Center
Thu 05:28:37 PM 45.4006 -122.7444 200° South 140 161 3,000 -492 Level Seattle Center
Thu 05:29:27 PM 45.3733 -122.7481 185° South 145 167 2,500 -649 Descending Seattle Center
Thu 05:30:28 PM 45.3369 -122.7544 187° South 136 157 1,800 -692 Descending Seattle Center
Thu 05:30:45 PM 45.3244 -122.7536 177° South 160 184 1,600 -393 Descending Seattle Center
Thu 05:31:29 PM 45.2950 -122.7608 190° South 135 155 1,400 -273 Descending Seattle Center

Login

Don't have an account? Register now (free) for customized features, flight alerts, and more!